sensor_id;sensor_type;location;lat;lon;timestamp;temperature;humidity
15452;DHT22;7827;53.594;9.938;2023-06-22T00:01:04;19.30;1.00
15452;DHT22;7827;53.594;9.938;2023-06-22T00:03:33;19.30;1.00
15452;DHT22;7827;53.594;9.938;2023-06-22T00:06:01;19.30;1.00
15452;DHT22;7827;53.594;9.938;2023-06-22T00:08:31;19.30;1.00
15452;DHT22;7827;53.594;9.938;2023-06-22T00:11:00;19.30;1.00
15452;DHT22;7827;53.594;9.938;2023-06-22T00:13:28;19.20;1.00
15452;DHT22;7827;53.594;9.938;2023-06-22T00:15:56;19.30;1.00
15452;DHT22;7827;53.594;9.938;2023-06-22T00:18:25;19.20;1.00
15452;DHT22;7827;53.594;9.938;2023-06-22T00:20:55;19.30;1.00
15452;DHT22;7827;53.594;9.938;2023-06-22T00:23:26;19.30;1.00
15452;DHT22;7827;53.594;9.938;2023-06-22T00:25:56;19.20;1.00
15452;DHT22;7827;53.594;9.938;2023-06-22T00:28:24;19.10;1.00
15452;DHT22;7827;53.594;9.938;2023-06-22T00:30:53;19.10;1.00
15452;DHT22;7827;53.594;9.938;2023-06-22T00:33:22;19.10;1.00
15452;DHT22;7827;53.594;9.938;2023-06-22T00:35:50;19.10;1.00
15452;DHT22;7827;53.594;9.938;2023-06-22T00:38:20;19.10;1.00
15452;DHT22;7827;53.594;9.938;2023-06-22T00:40:48;19.10;1.00
15452;DHT22;7827;53.594;9.938;2023-06-22T00:43:18;19.10;1.00
15452;DHT22;7827;53.594;9.938;2023-06-22T00:45:46;19.10;1.00
15452;DHT22;7827;53.594;9.938;2023-06-22T00:48:17;19.10;1.00
15452;DHT22;7827;53.594;9.938;2023-06-22T00:50:47;19.00;1.00
15452;DHT22;7827;53.594;9.938;2023-06-22T00:53:17;19.00;1.00
15452;DHT22;7827;53.594;9.938;2023-06-22T00:55:46;19.00;1.00
15452;DHT22;7827;53.594;9.938;2023-06-22T00:58:19;19.00;1.00
15452;DHT22;7827;53.594;9.938;2023-06-22T01:00:48;19.00;1.00
15452;DHT22;7827;53.594;9.938;2023-06-22T01:03:17;19.00;1.00
15452;DHT22;7827;53.594;9.938;2023-06-22T01:05:48;19.00;1.00
15452;DHT22;7827;53.594;9.938;2023-06-22T01:08:27;19.00;1.00
15452;DHT22;7827;53.594;9.938;2023-06-22T01:11:04;19.00;1.00
15452;DHT22;7827;53.594;9.938;2023-06-22T01:13:44;19.00;1.00
15452;DHT22;7827;53.594;9.938;2023-06-22T01:16:29;19.00;1.00
15452;DHT22;7827;53.594;9.938;2023-06-22T01:19:03;19.00;1.00
15452;DHT22;7827;53.594;9.938;2023-06-22T01:21:41;19.00;1.00
15452;DHT22;7827;53.594;9.938;2023-06-22T01:24:16;19.00;1.00
15452;DHT22;7827;53.594;9.938;2023-06-22T01:26:58;19.00;1.00
15452;DHT22;7827;53.594;9.938;2023-06-22T01:29:36;19.00;1.00
15452;DHT22;7827;53.594;9.938;2023-06-22T01:32:07;19.00;1.00
15452;DHT22;7827;53.594;9.938;2023-06-22T01:34:37;19.00;1.00
15452;DHT22;7827;53.594;9.938;2023-06-22T01:37:07;19.00;1.00
15452;DHT22;7827;53.594;9.938;2023-06-22T01:39:36;19.00;1.00
15452;DHT22;7827;53.594;9.938;2023-06-22T01:42:05;19.00;1.00
15452;DHT22;7827;53.594;9.938;2023-06-22T01:44:36;19.00;1.00
15452;DHT22;7827;53.594;9.938;2023-06-22T01:47:08;18.90;1.00
15452;DHT22;7827;53.594;9.938;2023-06-22T01:49:37;18.90;1.00
15452;DHT22;7827;53.594;9.938;2023-06-22T01:52:06;18.90;1.00
15452;DHT22;7827;53.594;9.938;2023-06-22T01:54:35;18.90;1.00
15452;DHT22;7827;53.594;9.938;2023-06-22T01:57:04;19.00;1.00
15452;DHT22;7827;53.594;9.938;2023-06-22T01:59:37;18.90;1.00
15452;DHT22;7827;53.594;9.938;2023-06-22T02:02:11;18.90;1.00
15452;DHT22;7827;53.594;9.938;2023-06-22T02:04:46;18.80;1.00
15452;DHT22;7827;53.594;9.938;2023-06-22T02:07:22;18.80;1.00
15452;DHT22;7827;53.594;9.938;2023-06-22T02:09:53;18.80;1.00
15452;DHT22;7827;53.594;9.938;2023-06-22T02:12:25;18.80;1.00
15452;DHT22;7827;53.594;9.938;2023-06-22T02:14:57;18.70;1.00
15452;DHT22;7827;53.594;9.938;2023-06-22T02:17:30;18.70;1.00
15452;DHT22;7827;53.594;9.938;2023-06-22T02:20:02;18.70;1.00
15452;DHT22;7827;53.594;9.938;2023-06-22T02:22:35;18.60;1.00
15452;DHT22;7827;53.594;9.938;2023-06-22T02:25:04;18.70;1.00
15452;DHT22;7827;53.594;9.938;2023-06-22T02:27:32;18.70;1.00
15452;DHT22;7827;53.594;9.938;2023-06-22T02:30:03;18.60;1.00
15452;DHT22;7827;53.594;9.938;2023-06-22T02:32:32;18.60;1.00
15452;DHT22;7827;53.594;9.938;2023-06-22T02:35:01;18.60;1.00
15452;DHT22;7827;53.594;9.938;2023-06-22T02:37:31;18.60;1.00
15452;DHT22;7827;53.594;9.938;2023-06-22T02:40:00;18.50;1.00
15452;DHT22;7827;53.594;9.938;2023-06-22T02:42:28;18.50;1.00
15452;DHT22;7827;53.594;9.938;2023-06-22T02:44:57;18.40;1.00
15452;DHT22;7827;53.594;9.938;2023-06-22T02:47:27;18.40;1.00
15452;DHT22;7827;53.594;9.938;2023-06-22T02:49:55;18.50;1.00
15452;DHT22;7827;53.594;9.938;2023-06-22T02:52:24;18.50;1.00
15452;DHT22;7827;53.594;9.938;2023-06-22T02:54:53;18.40;1.00
15452;DHT22;7827;53.594;9.938;2023-06-22T02:57:21;18.40;1.00
15452;DHT22;7827;53.594;9.938;2023-06-22T02:59:50;18.50;1.00
15452;DHT22;7827;53.594;9.938;2023-06-22T03:02:18;18.40;1.00
15452;DHT22;7827;53.594;9.938;2023-06-22T03:04:50;18.50;1.00
15452;DHT22;7827;53.594;9.938;2023-06-22T03:07:20;18.50;1.00
15452;DHT22;7827;53.594;9.938;2023-06-22T03:09:50;18.50;1.00
15452;DHT22;7827;53.594;9.938;2023-06-22T03:12:19;18.60;1.00
15452;DHT22;7827;53.594;9.938;2023-06-22T03:14:51;18.60;1.00
15452;DHT22;7827;53.594;9.938;2023-06-22T03:17:20;18.60;1.00
15452;DHT22;7827;53.594;9.938;2023-06-22T03:19:50;18.60;1.00
15452;DHT22;7827;53.594;9.938;2023-06-22T03:22:18;18.60;1.00
15452;DHT22;7827;53.594;9.938;2023-06-22T03:24:46;18.60;1.00
15452;DHT22;7827;53.594;9.938;2023-06-22T03:27:15;18.60;1.00
15452;DHT22;7827;53.594;9.938;2023-06-22T03:29:43;18.60;1.00
15452;DHT22;7827;53.594;9.938;2023-06-22T03:32:11;18.60;1.00
15452;DHT22;7827;53.594;9.938;2023-06-22T03:34:40;18.70;1.00
15452;DHT22;7827;53.594;9.938;2023-06-22T03:37:15;18.60;1.00
15452;DHT22;7827;53.594;9.938;2023-06-22T03:39:43;18.50;1.00
15452;DHT22;7827;53.594;9.938;2023-06-22T03:42:13;18.50;1.00
15452;DHT22;7827;53.594;9.938;2023-06-22T03:44:41;18.40;1.00
15452;DHT22;7827;53.594;9.938;2023-06-22T03:47:09;18.40;1.00
15452;DHT22;7827;53.594;9.938;2023-06-22T03:49:38;18.40;1.00
15452;DHT22;7827;53.594;9.938;2023-06-22T03:52:07;18.50;1.00
15452;DHT22;7827;53.594;9.938;2023-06-22T03:54:39;18.40;1.00
15452;DHT22;7827;53.594;9.938;2023-06-22T03:57:07;18.60;1.00
15452;DHT22;7827;53.594;9.938;2023-06-22T03:59:36;18.60;1.00
15452;DHT22;7827;53.594;9.938;2023-06-22T04:02:04;18.80;1.00
15452;DHT22;7827;53.594;9.938;2023-06-22T04:04:33;19.00;1.00
15452;DHT22;7827;53.594;9.938;2023-06-22T04:07:02;19.10;1.00
15452;DHT22;7827;53.594;9.938;2023-06-22T04:09:31;19.30;1.00
15452;DHT22;7827;53.594;9.938;2023-06-22T04:12:01;19.30;1.00
15452;DHT22;7827;53.594;9.938;2023-06-22T04:14:29;19.30;1.00
15452;DHT22;7827;53.594;9.938;2023-06-22T04:16:58;19.30;1.00
15452;DHT22;7827;53.594;9.938;2023-06-22T04:19:27;19.30;1.00
15452;DHT22;7827;53.594;9.938;2023-06-22T04:21:55;19.20;1.00
15452;DHT22;7827;53.594;9.938;2023-06-22T04:24:23;19.20;1.00
15452;DHT22;7827;53.594;9.938;2023-06-22T04:26:52;19.30;1.00
15452;DHT22;7827;53.594;9.938;2023-06-22T04:29:23;19.20;1.00
15452;DHT22;7827;53.594;9.938;2023-06-22T04:31:56;19.20;1.00
15452;DHT22;7827;53.594;9.938;2023-06-22T04:34:25;19.10;1.00
15452;DHT22;7827;53.594;9.938;2023-06-22T04:36:55;19.10;1.00
15452;DHT22;7827;53.594;9.938;2023-06-22T04:39:23;19.20;1.00
15452;DHT22;7827;53.594;9.938;2023-06-22T04:41:53;19.20;1.00
15452;DHT22;7827;53.594;9.938;2023-06-22T04:44:28;19.20;1.00
15452;DHT22;7827;53.594;9.938;2023-06-22T04:46:58;19.20;1.00
15452;DHT22;7827;53.594;9.938;2023-06-22T04:49:30;19.30;1.00
15452;DHT22;7827;53.594;9.938;2023-06-22T04:52:02;19.30;1.00
15452;DHT22;7827;53.594;9.938;2023-06-22T04:54:32;19.40;1.00
15452;DHT22;7827;53.594;9.938;2023-06-22T04:57:01;19.50;1.00
15452;DHT22;7827;53.594;9.938;2023-06-22T04:59:32;19.50;99.90
15452;DHT22;7827;53.594;9.938;2023-06-22T05:02:02;19.40;99.90
15452;DHT22;7827;53.594;9.938;2023-06-22T05:04:31;19.40;99.90
15452;DHT22;7827;53.594;9.938;2023-06-22T05:07:00;19.50;99.90
15452;DHT22;7827;53.594;9.938;2023-06-22T05:09:30;19.70;99.90
15452;DHT22;7827;53.594;9.938;2023-06-22T05:12:00;19.80;99.90
15452;DHT22;7827;53.594;9.938;2023-06-22T05:14:31;20.00;99.90
15452;DHT22;7827;53.594;9.938;2023-06-22T05:16:59;20.00;99.90
15452;DHT22;7827;53.594;9.938;2023-06-22T05:19:30;20.20;1.00
15452;DHT22;7827;53.594;9.938;2023-06-22T05:22:01;20.20;1.00
15452;DHT22;7827;53.594;9.938;2023-06-22T05:24:29;20.30;1.00
15452;DHT22;7827;53.594;9.938;2023-06-22T05:27:15;20.40;1.00
15452;DHT22;7827;53.594;9.938;2023-06-22T05:30:03;20.50;1.00
15452;DHT22;7827;53.594;9.938;2023-06-22T05:32:49;20.60;1.00
15452;DHT22;7827;53.594;9.938;2023-06-22T05:35:36;20.70;1.00
15452;DHT22;7827;53.594;9.938;2023-06-22T05:38:05;20.70;1.00
15452;DHT22;7827;53.594;9.938;2023-06-22T05:40:33;20.80;1.00
15452;DHT22;7827;53.594;9.938;2023-06-22T05:43:01;20.90;42.80
15452;DHT22;7827;53.594;9.938;2023-06-22T05:45:31;20.80;99.90
15452;DHT22;7827;53.594;9.938;2023-06-22T05:48:00;20.90;1.00
15452;DHT22;7827;53.594;9.938;2023-06-22T05:50:28;20.90;29.30
15452;DHT22;7827;53.594;9.938;2023-06-22T05:52:57;20.90;1.00
15452;DHT22;7827;53.594;9.938;2023-06-22T05:55:25;21.00;1.00
15452;DHT22;7827;53.594;9.938;2023-06-22T05:57:54;21.00;1.00
15452;DHT22;7827;53.594;9.938;2023-06-22T06:00:22;21.10;99.90
15452;DHT22;7827;53.594;9.938;2023-06-22T06:02:54;21.30;1.00
15452;DHT22;7827;53.594;9.938;2023-06-22T06:05:22;21.40;58.40
15452;DHT22;7827;53.594;9.938;2023-06-22T06:07:52;21.30;99.90
15452;DHT22;7827;53.594;9.938;2023-06-22T06:10:20;21.40;14.40
15452;DHT22;7827;53.594;9.938;2023-06-22T06:12:49;21.40;99.90
15452;DHT22;7827;53.594;9.938;2023-06-22T06:15:18;21.50;99.90
15452;DHT22;7827;53.594;9.938;2023-06-22T06:17:47;21.60;14.60
15452;DHT22;7827;53.594;9.938;2023-06-22T06:20:18;21.60;99.90
15452;DHT22;7827;53.594;9.938;2023-06-22T06:22:48;21.80;1.00
15452;DHT22;7827;53.594;9.938;2023-06-22T06:25:18;21.80;99.90
15452;DHT22;7827;53.594;9.938;2023-06-22T06:27:50;21.90;1.00
15452;DHT22;7827;53.594;9.938;2023-06-22T06:30:21;21.80;92.60
15452;DHT22;7827;53.594;9.938;2023-06-22T06:32:50;21.90;1.00
15452;DHT22;7827;53.594;9.938;2023-06-22T06:35:20;22.00;1.00
15452;DHT22;7827;53.594;9.938;2023-06-22T06:37:50;22.00;1.00
15452;DHT22;7827;53.594;9.938;2023-06-22T06:40:19;21.90;99.90
15452;DHT22;7827;53.594;9.938;2023-06-22T06:42:48;21.80;99.90
15452;DHT22;7827;53.594;9.938;2023-06-22T06:45:19;21.70;1.00
15452;DHT22;7827;53.594;9.938;2023-06-22T06:47:50;21.70;99.90
15452;DHT22;7827;53.594;9.938;2023-06-22T06:50:21;21.60;99.90
15452;DHT22;7827;53.594;9.938;2023-06-22T06:52:49;21.60;1.00
15452;DHT22;7827;53.594;9.938;2023-06-22T06:55:18;21.50;1.00
15452;DHT22;7827;53.594;9.938;2023-06-22T06:57:47;21.40;1.00
15452;DHT22;7827;53.594;9.938;2023-06-22T07:00:17;21.50;1.00
15452;DHT22;7827;53.594;9.938;2023-06-22T07:02:46;21.60;1.00
15452;DHT22;7827;53.594;9.938;2023-06-22T07:05:16;21.60;99.90
15452;DHT22;7827;53.594;9.938;2023-06-22T07:07:46;21.80;1.00
15452;DHT22;7827;53.594;9.938;2023-06-22T07:10:15;22.00;47.70
15452;DHT22;7827;53.594;9.938;2023-06-22T07:12:44;22.10;1.00
15452;DHT22;7827;53.594;9.938;2023-06-22T07:15:13;22.10;1.00
15452;DHT22;7827;53.594;9.938;2023-06-22T07:17:41;22.20;99.90
15452;DHT22;7827;53.594;9.938;2023-06-22T07:20:11;22.30;4.00
15452;DHT22;7827;53.594;9.938;2023-06-22T07:22:41;22.50;99.90
15452;DHT22;7827;53.594;9.938;2023-06-22T07:25:12;22.70;1.00
15452;DHT22;7827;53.594;9.938;2023-06-22T07:27:47;22.80;99.90
15452;DHT22;7827;53.594;9.938;2023-06-22T07:30:26;22.90;99.90
15452;DHT22;7827;53.594;9.938;2023-06-22T07:32:55;23.00;99.90
15452;DHT22;7827;53.594;9.938;2023-06-22T07:35:25;23.00;6.50
15452;DHT22;7827;53.594;9.938;2023-06-22T07:37:53;23.00;1.00
15452;DHT22;7827;53.594;9.938;2023-06-22T07:40:23;23.00;1.00
15452;DHT22;7827;53.594;9.938;2023-06-22T07:42:51;22.90;1.00
15452;DHT22;7827;53.594;9.938;2023-06-22T07:45:20;23.00;1.00
15452;DHT22;7827;53.594;9.938;2023-06-22T07:47:49;23.00;1.00
15452;DHT22;7827;53.594;9.938;2023-06-22T07:50:18;23.00;99.90
15452;DHT22;7827;53.594;9.938;2023-06-22T07:52:46;23.10;1.00
15452;DHT22;7827;53.594;9.938;2023-06-22T07:55:15;23.20;1.00
15452;DHT22;7827;53.594;9.938;2023-06-22T07:57:46;23.40;1.00
15452;DHT22;7827;53.594;9.938;2023-06-22T08:00:21;23.50;90.40
15452;DHT22;7827;53.594;9.938;2023-06-22T08:02:50;23.40;99.90
15452;DHT22;7827;53.594;9.938;2023-06-22T08:05:18;23.40;99.90
15452;DHT22;7827;53.594;9.938;2023-06-22T08:07:49;23.50;1.00
15452;DHT22;7827;53.594;9.938;2023-06-22T08:10:18;23.50;99.90
15452;DHT22;7827;53.594;9.938;2023-06-22T08:12:48;23.50;99.90
15452;DHT22;7827;53.594;9.938;2023-06-22T08:15:17;23.60;1.00
15452;DHT22;7827;53.594;9.938;2023-06-22T08:17:45;23.80;1.00
15452;DHT22;7827;53.594;9.938;2023-06-22T08:20:32;23.90;1.00
15452;DHT22;7827;53.594;9.938;2023-06-22T08:23:19;24.10;99.90
15452;DHT22;7827;53.594;9.938;2023-06-22T08:26:06;24.30;1.00
15452;DHT22;7827;53.594;9.938;2023-06-22T08:28:37;24.20;99.90
15452;DHT22;7827;53.594;9.938;2023-06-22T08:31:05;24.10;1.00
15452;DHT22;7827;53.594;9.938;2023-06-22T08:33:33;24.10;99.90
15452;DHT22;7827;53.594;9.938;2023-06-22T08:36:02;24.20;99.90
15452;DHT22;7827;53.594;9.938;2023-06-22T08:38:33;24.30;99.90
15452;DHT22;7827;53.594;9.938;2023-06-22T08:41:01;24.20;1.00
15452;DHT22;7827;53.594;9.938;2023-06-22T08:43:29;23.90;99.90
15452;DHT22;7827;53.594;9.938;2023-06-22T08:45:59;24.00;99.90
15452;DHT22;7827;53.594;9.938;2023-06-22T08:48:29;24.20;22.10
15452;DHT22;7827;53.594;9.938;2023-06-22T08:50:58;24.30;1.00
15452;DHT22;7827;53.594;9.938;2023-06-22T08:53:27;24.40;92.40
15452;DHT22;7827;53.594;9.938;2023-06-22T08:55:55;24.40;99.90
15452;DHT22;7827;53.594;9.938;2023-06-22T08:58:24;24.30;30.00
15452;DHT22;7827;53.594;9.938;2023-06-22T09:00:52;24.20;1.00
15452;DHT22;7827;53.594;9.938;2023-06-22T09:03:22;24.30;39.40
15452;DHT22;7827;53.594;9.938;2023-06-22T09:05:53;24.50;1.00
15452;DHT22;7827;53.594;9.938;2023-06-22T09:08:22;24.60;1.00
15452;DHT22;7827;53.594;9.938;2023-06-22T09:10:51;24.60;1.00
15452;DHT22;7827;53.594;9.938;2023-06-22T09:13:19;24.80;1.00
15452;DHT22;7827;53.594;9.938;2023-06-22T09:15:49;24.90;1.00
15452;DHT22;7827;53.594;9.938;2023-06-22T09:18:18;24.90;99.90
15452;DHT22;7827;53.594;9.938;2023-06-22T09:21:06;24.90;1.00
15452;DHT22;7827;53.594;9.938;2023-06-22T09:23:53;25.00;99.90
15452;DHT22;7827;53.594;9.938;2023-06-22T09:26:41;25.30;1.00
15452;DHT22;7827;53.594;9.938;2023-06-22T09:29:28;25.30;99.90
15452;DHT22;7827;53.594;9.938;2023-06-22T09:31:56;25.40;99.90
15452;DHT22;7827;53.594;9.938;2023-06-22T09:34:24;25.60;41.80
15452;DHT22;7827;53.594;9.938;2023-06-22T09:36:54;25.60;88.00
15452;DHT22;7827;53.594;9.938;2023-06-22T09:39:24;25.70;99.90
15452;DHT22;7827;53.594;9.938;2023-06-22T09:41:52;25.70;99.90
15452;DHT22;7827;53.594;9.938;2023-06-22T09:44:20;25.70;99.90
15452;DHT22;7827;53.594;9.938;2023-06-22T09:46:49;25.70;80.00
15452;DHT22;7827;53.594;9.938;2023-06-22T09:49:17;25.90;73.80
15452;DHT22;7827;53.594;9.938;2023-06-22T09:52:06;26.10;99.90
15452;DHT22;7827;53.594;9.938;2023-06-22T09:54:34;26.20;99.90
15452;DHT22;7827;53.594;9.938;2023-06-22T09:57:03;26.20;1.00
15452;DHT22;7827;53.594;9.938;2023-06-22T09:59:32;26.20;1.00
15452;DHT22;7827;53.594;9.938;2023-06-22T10:02:00;26.10;1.00
15452;DHT22;7827;53.594;9.938;2023-06-22T10:04:29;26.00;53.60
15452;DHT22;7827;53.594;9.938;2023-06-22T10:06:58;26.30;57.10
15452;DHT22;7827;53.594;9.938;2023-06-22T10:09:28;26.40;5.90
15452;DHT22;7827;53.594;9.938;2023-06-22T10:11:56;26.50;1.00
15452;DHT22;7827;53.594;9.938;2023-06-22T10:14:24;26.30;1.00
15452;DHT22;7827;53.594;9.938;2023-06-22T10:16:54;26.40;1.00
15452;DHT22;7827;53.594;9.938;2023-06-22T10:19:25;26.60;1.00
15452;DHT22;7827;53.594;9.938;2023-06-22T10:21:54;26.70;1.00
15452;DHT22;7827;53.594;9.938;2023-06-22T10:24:23;26.60;1.00
15452;DHT22;7827;53.594;9.938;2023-06-22T10:26:52;26.60;38.00
15452;DHT22;7827;53.594;9.938;2023-06-22T10:29:21;26.80;1.00
15452;DHT22;7827;53.594;9.938;2023-06-22T10:31:49;26.90;1.00
15452;DHT22;7827;53.594;9.938;2023-06-22T10:34:17;27.10;1.00
15452;DHT22;7827;53.594;9.938;2023-06-22T10:36:46;26.90;99.90
15452;DHT22;7827;53.594;9.938;2023-06-22T10:39:15;26.90;1.00
15452;DHT22;7827;53.594;9.938;2023-06-22T10:41:44;26.80;1.00
15452;DHT22;7827;53.594;9.938;2023-06-22T10:44:14;26.90;1.00
15452;DHT22;7827;53.594;9.938;2023-06-22T10:46:44;26.80;1.00
15452;DHT22;7827;53.594;9.938;2023-06-22T10:49:12;26.60;1.00
15452;DHT22;7827;53.594;9.938;2023-06-22T10:51:41;26.70;1.00
15452;DHT22;7827;53.594;9.938;2023-06-22T10:54:09;26.80;1.00
15452;DHT22;7827;53.594;9.938;2023-06-22T10:56:40;26.80;1.00
15452;DHT22;7827;53.594;9.938;2023-06-22T10:59:08;26.80;1.00
15452;DHT22;7827;53.594;9.938;2023-06-22T11:01:38;26.90;1.00
15452;DHT22;7827;53.594;9.938;2023-06-22T11:04:07;27.00;1.00
15452;DHT22;7827;53.594;9.938;2023-06-22T11:06:36;27.00;1.00
15452;DHT22;7827;53.594;9.938;2023-06-22T11:09:04;27.00;1.00
15452;DHT22;7827;53.594;9.938;2023-06-22T11:11:52;27.10;1.00
15452;DHT22;7827;53.594;9.938;2023-06-22T11:14:21;27.10;1.00
15452;DHT22;7827;53.594;9.938;2023-06-22T11:16:51;27.20;1.00
15452;DHT22;7827;53.594;9.938;2023-06-22T11:19:19;27.20;1.00
15452;DHT22;7827;53.594;9.938;2023-06-22T11:22:06;27.20;1.00
15452;DHT22;7827;53.594;9.938;2023-06-22T11:24:34;27.30;1.00
15452;DHT22;7827;53.594;9.938;2023-06-22T11:27:03;27.20;1.00
15452;DHT22;7827;53.594;9.938;2023-06-22T11:29:32;27.00;1.00
15452;DHT22;7827;53.594;9.938;2023-06-22T11:32:07;26.70;1.00
15452;DHT22;7827;53.594;9.938;2023-06-22T11:34:38;26.60;1.00
15452;DHT22;7827;53.594;9.938;2023-06-22T11:37:06;26.50;1.00
15452;DHT22;7827;53.594;9.938;2023-06-22T11:39:35;26.40;1.00
15452;DHT22;7827;53.594;9.938;2023-06-22T11:42:09;26.50;1.00
15452;DHT22;7827;53.594;9.938;2023-06-22T11:44:38;26.70;1.00
15452;DHT22;7827;53.594;9.938;2023-06-22T11:47:07;26.70;1.00
15452;DHT22;7827;53.594;9.938;2023-06-22T11:49:36;27.00;1.00
15452;DHT22;7827;53.594;9.938;2023-06-22T11:52:05;26.90;1.00
15452;DHT22;7827;53.594;9.938;2023-06-22T11:54:33;26.80;1.00
15452;DHT22;7827;53.594;9.938;2023-06-22T11:57:02;26.80;1.00
15452;DHT22;7827;53.594;9.938;2023-06-22T11:59:31;26.80;1.00
15452;DHT22;7827;53.594;9.938;2023-06-22T12:02:00;26.90;1.00
15452;DHT22;7827;53.594;9.938;2023-06-22T12:04:29;27.00;1.00
15452;DHT22;7827;53.594;9.938;2023-06-22T12:06:58;27.10;1.00
15452;DHT22;7827;53.594;9.938;2023-06-22T12:09:26;27.30;1.00
15452;DHT22;7827;53.594;9.938;2023-06-22T12:11:55;27.40;1.00
15452;DHT22;7827;53.594;9.938;2023-06-22T12:14:23;27.30;1.00
15452;DHT22;7827;53.594;9.938;2023-06-22T12:16:51;27.30;1.00
15452;DHT22;7827;53.594;9.938;2023-06-22T12:19:20;27.30;1.00
15452;DHT22;7827;53.594;9.938;2023-06-22T12:21:50;27.40;1.00
15452;DHT22;7827;53.594;9.938;2023-06-22T12:24:18;27.60;1.00
15452;DHT22;7827;53.594;9.938;2023-06-22T12:26:46;27.70;1.00
15452;DHT22;7827;53.594;9.938;2023-06-22T12:29:15;27.60;1.00
15452;DHT22;7827;53.594;9.938;2023-06-22T12:31:43;27.40;1.00
15452;DHT22;7827;53.594;9.938;2023-06-22T12:34:12;27.30;1.00
15452;DHT22;7827;53.594;9.938;2023-06-22T12:36:40;27.30;1.00
15452;DHT22;7827;53.594;9.938;2023-06-22T12:39:10;27.40;1.00
15452;DHT22;7827;53.594;9.938;2023-06-22T12:41:38;27.40;1.00
15452;DHT22;7827;53.594;9.938;2023-06-22T12:44:07;27.60;99.90
15452;DHT22;7827;53.594;9.938;2023-06-22T12:46:35;27.70;1.00
15452;DHT22;7827;53.594;9.938;2023-06-22T12:49:04;27.80;1.00
15452;DHT22;7827;53.594;9.938;2023-06-22T12:51:33;27.80;1.00
15452;DHT22;7827;53.594;9.938;2023-06-22T12:54:02;27.70;1.00
15452;DHT22;7827;53.594;9.938;2023-06-22T12:56:32;27.60;1.00
15452;DHT22;7827;53.594;9.938;2023-06-22T12:59:00;27.50;1.00
15452;DHT22;7827;53.594;9.938;2023-06-22T13:01:29;27.40;1.00
15452;DHT22;7827;53.594;9.938;2023-06-22T13:03:59;27.30;1.00
15452;DHT22;7827;53.594;9.938;2023-06-22T13:06:27;27.30;1.00
15452;DHT22;7827;53.594;9.938;2023-06-22T13:08:56;27.30;1.00
15452;DHT22;7827;53.594;9.938;2023-06-22T13:11:45;27.40;1.00
15452;DHT22;7827;53.594;9.938;2023-06-22T13:14:16;27.40;1.00
15452;DHT22;7827;53.594;9.938;2023-06-22T13:16:44;27.30;1.00
15452;DHT22;7827;53.594;9.938;2023-06-22T13:19:13;27.30;1.00
15452;DHT22;7827;53.594;9.938;2023-06-22T13:21:41;27.30;1.00
15452;DHT22;7827;53.594;9.938;2023-06-22T13:24:10;27.40;1.00
15452;DHT22;7827;53.594;9.938;2023-06-22T13:26:38;27.40;1.00
15452;DHT22;7827;53.594;9.938;2023-06-22T13:29:07;27.40;1.00
15452;DHT22;7827;53.594;9.938;2023-06-22T13:31:37;27.40;1.00
15452;DHT22;7827;53.594;9.938;2023-06-22T13:34:23;27.20;1.00
15452;DHT22;7827;53.594;9.938;2023-06-22T13:37:09;27.20;87.20
15452;DHT22;7827;53.594;9.938;2023-06-22T13:39:55;27.20;92.00
15452;DHT22;7827;53.594;9.938;2023-06-22T13:42:43;27.30;70.50
15452;DHT22;7827;53.594;9.938;2023-06-22T13:45:31;27.30;1.00
15452;DHT22;7827;53.594;9.938;2023-06-22T13:48:17;27.20;1.00
15452;DHT22;7827;53.594;9.938;2023-06-22T13:51:03;27.10;1.00
15452;DHT22;7827;53.594;9.938;2023-06-22T13:53:31;27.00;68.60
15452;DHT22;7827;53.594;9.938;2023-06-22T13:55:59;27.10;29.20
15452;DHT22;7827;53.594;9.938;2023-06-22T13:58:28;27.10;52.90
15452;DHT22;7827;53.594;9.938;2023-06-22T14:00:57;27.10;1.00
15452;DHT22;7827;53.594;9.938;2023-06-22T14:03:26;27.10;15.10
15452;DHT22;7827;53.594;9.938;2023-06-22T14:05:54;27.10;1.00
15452;DHT22;7827;53.594;9.938;2023-06-22T14:08:25;27.10;30.40
15452;DHT22;7827;53.594;9.938;2023-06-22T14:10:56;27.20;1.00
15452;DHT22;7827;53.594;9.938;2023-06-22T14:13:24;27.10;99.90
15452;DHT22;7827;53.594;9.938;2023-06-22T14:15:53;27.10;65.20
15452;DHT22;7827;53.594;9.938;2023-06-22T14:18:22;27.10;1.00
15452;DHT22;7827;53.594;9.938;2023-06-22T14:20:51;27.00;48.00
15452;DHT22;7827;53.594;9.938;2023-06-22T14:23:19;27.10;1.00
15452;DHT22;7827;53.594;9.938;2023-06-22T14:25:47;27.00;99.90
15452;DHT22;7827;53.594;9.938;2023-06-22T14:28:16;27.00;99.90
15452;DHT22;7827;53.594;9.938;2023-06-22T14:30:44;27.10;99.90
15452;DHT22;7827;53.594;9.938;2023-06-22T14:33:13;27.20;36.80
15452;DHT22;7827;53.594;9.938;2023-06-22T14:35:43;27.20;1.00
15452;DHT22;7827;53.594;9.938;2023-06-22T14:38:11;27.10;6.10
15452;DHT22;7827;53.594;9.938;2023-06-22T14:40:39;27.10;1.00
15452;DHT22;7827;53.594;9.938;2023-06-22T14:43:27;27.00;59.90
15452;DHT22;7827;53.594;9.938;2023-06-22T14:45:56;26.80;94.60
15452;DHT22;7827;53.594;9.938;2023-06-22T14:48:24;26.60;99.90
15452;DHT22;7827;53.594;9.938;2023-06-22T14:50:57;26.50;99.90
15452;DHT22;7827;53.594;9.938;2023-06-22T14:53:27;26.50;99.90
15452;DHT22;7827;53.594;9.938;2023-06-22T14:55:55;26.40;99.90
15452;DHT22;7827;53.594;9.938;2023-06-22T14:58:23;26.40;99.90
15452;DHT22;7827;53.594;9.938;2023-06-22T15:00:52;26.40;99.90
15452;DHT22;7827;53.594;9.938;2023-06-22T15:03:20;26.40;1.00
15452;DHT22;7827;53.594;9.938;2023-06-22T15:05:52;26.40;1.00
15452;DHT22;7827;53.594;9.938;2023-06-22T15:08:23;26.30;99.90
15452;DHT22;7827;53.594;9.938;2023-06-22T15:10:51;26.30;1.00
15452;DHT22;7827;53.594;9.938;2023-06-22T15:13:20;26.30;1.00
15452;DHT22;7827;53.594;9.938;2023-06-22T15:15:50;26.30;1.00
15452;DHT22;7827;53.594;9.938;2023-06-22T15:18:18;26.30;1.00
15452;DHT22;7827;53.594;9.938;2023-06-22T15:20:47;26.20;1.00
15452;DHT22;7827;53.594;9.938;2023-06-22T15:23:15;26.20;99.90
15452;DHT22;7827;53.594;9.938;2023-06-22T15:25:45;26.10;1.00
15452;DHT22;7827;53.594;9.938;2023-06-22T15:28:14;26.10;1.00
15452;DHT22;7827;53.594;9.938;2023-06-22T15:30:43;26.00;1.00
15452;DHT22;7827;53.594;9.938;2023-06-22T15:33:15;26.00;1.00
15452;DHT22;7827;53.594;9.938;2023-06-22T15:35:43;26.00;1.00
15452;DHT22;7827;53.594;9.938;2023-06-22T15:38:12;26.00;1.00
15452;DHT22;7827;53.594;9.938;2023-06-22T15:40:40;26.00;1.00
15452;DHT22;7827;53.594;9.938;2023-06-22T15:43:11;26.00;1.00
15452;DHT22;7827;53.594;9.938;2023-06-22T15:45:41;26.00;1.00
15452;DHT22;7827;53.594;9.938;2023-06-22T15:48:09;25.90;1.00
15452;DHT22;7827;53.594;9.938;2023-06-22T15:50:37;25.90;1.00
15452;DHT22;7827;53.594;9.938;2023-06-22T15:53:06;25.90;1.00
15452;DHT22;7827;53.594;9.938;2023-06-22T15:55:34;25.80;1.00
15452;DHT22;7827;53.594;9.938;2023-06-22T15:58:03;25.80;1.00
15452;DHT22;7827;53.594;9.938;2023-06-22T16:00:32;25.80;1.00
15452;DHT22;7827;53.594;9.938;2023-06-22T16:03:01;25.70;1.00
15452;DHT22;7827;53.594;9.938;2023-06-22T16:05:30;25.70;92.70
15452;DHT22;7827;53.594;9.938;2023-06-22T16:07:58;25.60;99.90
15452;DHT22;7827;53.594;9.938;2023-06-22T16:10:26;25.60;99.90
15452;DHT22;7827;53.594;9.938;2023-06-22T16:12:55;25.60;71.90
15452;DHT22;7827;53.594;9.938;2023-06-22T16:15:24;25.50;72.80
15452;DHT22;7827;53.594;9.938;2023-06-22T16:17:53;25.60;99.90